sensor_id;sensor_type;location;lat;lon;timestamp;P1;durP1;ratioP1;P2;durP2;ratioP2
45863;SDS011;31579;52.354;16.974;2023-02-28T00:02:14;67.70;;;27.60;;
45863;SDS011;31579;52.354;16.974;2023-02-28T00:07:14;71.10;;;26.70;;
45863;SDS011;31579;52.354;16.974;2023-02-28T00:12:14;71.10;;;26.70;;
45863;SDS011;31579;52.354;16.974;2023-02-28T00:17:14;61.10;;;25.10;;
45863;SDS011;31579;52.354;16.974;2023-02-28T00:22:15;61.10;;;25.10;;
45863;SDS011;31579;52.354;16.974;2023-02-28T00:27:14;67.70;;;26.30;;
45863;SDS011;31579;52.354;16.974;2023-02-28T00:32:14;67.70;;;26.30;;
45863;SDS011;31579;52.354;16.974;2023-02-28T00:37:14;56.70;;;24.00;;
45863;SDS011;31579;52.354;16.974;2023-02-28T00:42:15;56.70;;;24.00;;
45863;SDS011;31579;52.354;16.974;2023-02-28T00:47:14;57.90;;;23.60;;
45863;SDS011;31579;52.354;16.974;2023-02-28T00:52:14;57.90;;;23.60;;
45863;SDS011;31579;52.354;16.974;2023-02-28T00:57:14;52.20;;;21.10;;
45863;SDS011;31579;52.354;16.974;2023-02-28T01:02:19;52.20;;;21.10;;
45863;SDS011;31579;52.354;16.974;2023-02-28T01:07:15;49.00;;;19.50;;
45863;SDS011;31579;52.354;16.974;2023-02-28T01:12:15;49.00;;;19.50;;
45863;SDS011;31579;52.354;16.974;2023-02-28T01:17:14;44.50;;;17.90;;
45863;SDS011;31579;52.354;16.974;2023-02-28T01:24:05;44.50;;;17.90;;
45863;SDS011;31579;52.354;16.974;2023-02-28T01:29:04;40.10;;;17.40;;
45863;SDS011;31579;52.354;16.974;2023-02-28T01:34:04;40.10;;;17.40;;
45863;SDS011;31579;52.354;16.974;2023-02-28T01:39:04;40.50;;;16.80;;
45863;SDS011;31579;52.354;16.974;2023-02-28T01:44:05;40.50;;;16.80;;
45863;SDS011;31579;52.354;16.974;2023-02-28T01:53:43;41.70;;;18.00;;
45863;SDS011;31579;52.354;16.974;2023-02-28T01:58:42;39.70;;;17.50;;
45863;SDS011;31579;52.354;16.974;2023-02-28T02:03:42;39.70;;;17.50;;
45863;SDS011;31579;52.354;16.974;2023-02-28T02:08:42;44.50;;;17.70;;
45863;SDS011;31579;52.354;16.974;2023-02-28T02:18:08;42.40;;;17.90;;
45863;SDS011;31579;52.354;16.974;2023-02-28T02:33:28;42.30;;;18.10;;
45863;SDS011;31579;52.354;16.974;2023-02-28T02:35:38;42.30;;;18.10;;
45863;SDS011;31579;52.354;16.974;2023-02-28T02:40:33;46.80;;;20.40;;
45863;SDS011;31579;52.354;16.974;2023-02-28T02:50:30;46.70;;;19.40;;
45863;SDS011;31579;52.354;16.974;2023-02-28T02:55:29;46.70;;;19.40;;
45863;SDS011;31579;52.354;16.974;2023-02-28T03:00:31;50.30;;;20.70;;
45863;SDS011;31579;52.354;16.974;2023-02-28T03:10:25;50.30;;;20.70;;
45863;SDS011;31579;52.354;16.974;2023-02-28T03:38:16;51.30;;;20.90;;
45863;SDS011;31579;52.354;16.974;2023-02-28T03:53:07;46.40;;;19.80;;
45863;SDS011;31579;52.354;16.974;2023-02-28T03:58:20;46.20;;;20.70;;
45863;SDS011;31579;52.354;16.974;2023-02-28T04:03:04;46.20;;;20.70;;
45863;SDS011;31579;52.354;16.974;2023-02-28T04:08:05;55.30;;;22.00;;
45863;SDS011;31579;52.354;16.974;2023-02-28T04:13:04;55.30;;;22.00;;
45863;SDS011;31579;52.354;16.974;2023-02-28T04:18:04;50.30;;;21.60;;
45863;SDS011;31579;52.354;16.974;2023-02-28T04:23:04;50.30;;;21.60;;
45863;SDS011;31579;52.354;16.974;2023-02-28T04:28:04;48.50;;;20.30;;
45863;SDS011;31579;52.354;16.974;2023-02-28T04:33:04;48.50;;;20.30;;
45863;SDS011;31579;52.354;16.974;2023-02-28T04:38:04;48.20;;;19.60;;
45863;SDS011;31579;52.354;16.974;2023-02-28T04:43:04;48.20;;;19.60;;
45863;SDS011;31579;52.354;16.974;2023-02-28T04:48:04;47.00;;;21.00;;
45863;SDS011;31579;52.354;16.974;2023-02-28T04:53:04;47.00;;;21.00;;
45863;SDS011;31579;52.354;16.974;2023-02-28T04:58:04;48.90;;;21.30;;
45863;SDS011;31579;52.354;16.974;2023-02-28T05:03:04;48.90;;;21.30;;
45863;SDS011;31579;52.354;16.974;2023-02-28T05:08:04;53.60;;;22.10;;
45863;SDS011;31579;52.354;16.974;2023-02-28T05:13:04;53.60;;;22.10;;
45863;SDS011;31579;52.354;16.974;2023-02-28T05:18:04;51.10;;;19.70;;
45863;SDS011;31579;52.354;16.974;2023-02-28T05:23:04;51.10;;;19.70;;
45863;SDS011;31579;52.354;16.974;2023-02-28T05:28:04;73.40;;;31.00;;
45863;SDS011;31579;52.354;16.974;2023-02-28T05:31:42;73.40;;;31.00;;
45863;SDS011;31579;52.354;16.974;2023-02-28T05:36:40;58.90;;;23.70;;
45863;SDS011;31579;52.354;16.974;2023-02-28T05:41:41;58.90;;;23.70;;
45863;SDS011;31579;52.354;16.974;2023-02-28T05:46:40;67.10;;;28.00;;
45863;SDS011;31579;52.354;16.974;2023-02-28T05:51:40;67.10;;;28.00;;
45863;SDS011;31579;52.354;16.974;2023-02-28T05:56:40;89.20;;;32.50;;
45863;SDS011;31579;52.354;16.974;2023-02-28T06:01:41;89.20;;;32.50;;
45863;SDS011;31579;52.354;16.974;2023-02-28T06:06:40;65.90;;;23.70;;
45863;SDS011;31579;52.354;16.974;2023-02-28T06:11:40;65.90;;;23.70;;
45863;SDS011;31579;52.354;16.974;2023-02-28T06:16:40;47.70;;;19.30;;
45863;SDS011;31579;52.354;16.974;2023-02-28T06:21:40;47.70;;;19.30;;
45863;SDS011;31579;52.354;16.974;2023-02-28T06:26:40;77.50;;;29.90;;
45863;SDS011;31579;52.354;16.974;2023-02-28T06:33:31;77.50;;;29.90;;
45863;SDS011;31579;52.354;16.974;2023-02-28T06:38:31;91.10;;;38.40;;
45863;SDS011;31579;52.354;16.974;2023-02-28T06:43:33;91.10;;;38.40;;
45863;SDS011;31579;52.354;16.974;2023-02-28T06:48:31;121.90;;;46.30;;
45863;SDS011;31579;52.354;16.974;2023-02-28T06:53:31;121.90;;;46.30;;
45863;SDS011;31579;52.354;16.974;2023-02-28T06:58:31;73.10;;;29.60;;
45863;SDS011;31579;52.354;16.974;2023-02-28T07:03:31;73.10;;;29.60;;
45863;SDS011;31579;52.354;16.974;2023-02-28T07:08:31;102.20;;;36.50;;
45863;SDS011;31579;52.354;16.974;2023-02-28T07:13:31;102.20;;;36.50;;
45863;SDS011;31579;52.354;16.974;2023-02-28T07:18:31;72.00;;;28.30;;
45863;SDS011;31579;52.354;16.974;2023-02-28T07:23:31;72.00;;;28.30;;
45863;SDS011;31579;52.354;16.974;2023-02-28T07:28:31;61.00;;;25.30;;
45863;SDS011;31579;52.354;16.974;2023-02-28T07:33:31;61.00;;;25.30;;
45863;SDS011;31579;52.354;16.974;2023-02-28T07:38:35;53.90;;;24.30;;
45863;SDS011;31579;52.354;16.974;2023-02-28T07:43:32;53.90;;;24.30;;
45863;SDS011;31579;52.354;16.974;2023-02-28T07:48:31;51.30;;;22.50;;
45863;SDS011;31579;52.354;16.974;2023-02-28T07:53:31;51.30;;;22.50;;
45863;SDS011;31579;52.354;16.974;2023-02-28T07:58:31;54.90;;;24.60;;
45863;SDS011;31579;52.354;16.974;2023-02-28T08:03:31;54.90;;;24.60;;
45863;SDS011;31579;52.354;16.974;2023-02-28T08:08:31;45.70;;;20.20;;
45863;SDS011;31579;52.354;16.974;2023-02-28T08:13:31;45.70;;;20.20;;
45863;SDS011;31579;52.354;16.974;2023-02-28T08:18:32;41.00;;;19.00;;
45863;SDS011;31579;52.354;16.974;2023-02-28T08:23:31;41.00;;;19.00;;
45863;SDS011;31579;52.354;16.974;2023-02-28T08:28:31;40.50;;;18.60;;
45863;SDS011;31579;52.354;16.974;2023-02-28T08:33:31;40.50;;;18.60;;
45863;SDS011;31579;52.354;16.974;2023-02-28T08:38:31;41.00;;;18.40;;
45863;SDS011;31579;52.354;16.974;2023-02-28T08:43:31;41.00;;;18.40;;
45863;SDS011;31579;52.354;16.974;2023-02-28T08:48:32;40.10;;;17.90;;
45863;SDS011;31579;52.354;16.974;2023-02-28T08:53:31;40.10;;;17.90;;
45863;SDS011;31579;52.354;16.974;2023-02-28T08:58:32;34.40;;;16.50;;
45863;SDS011;31579;52.354;16.974;2023-02-28T09:03:31;34.40;;;16.50;;
45863;SDS011;31579;52.354;16.974;2023-02-28T09:08:31;30.70;;;16.10;;
45863;SDS011;31579;52.354;16.974;2023-02-28T09:13:32;30.70;;;16.10;;
45863;SDS011;31579;52.354;16.974;2023-02-28T09:18:33;36.80;;;16.50;;
45863;SDS011;31579;52.354;16.974;2023-02-28T09:23:31;36.80;;;16.50;;
45863;SDS011;31579;52.354;16.974;2023-02-28T09:28:31;35.20;;;15.80;;
45863;SDS011;31579;52.354;16.974;2023-02-28T09:33:31;35.20;;;15.80;;
45863;SDS011;31579;52.354;16.974;2023-02-28T09:38:31;29.80;;;15.00;;
45863;SDS011;31579;52.354;16.974;2023-02-28T09:43:33;29.80;;;15.00;;
45863;SDS011;31579;52.354;16.974;2023-02-28T09:48:32;26.80;;;13.70;;
45863;SDS011;31579;52.354;16.974;2023-02-28T09:53:32;26.80;;;13.70;;
45863;SDS011;31579;52.354;16.974;2023-02-28T10:08:18;27.70;;;12.80;;
45863;SDS011;31579;52.354;16.974;2023-02-28T10:18:16;22.60;;;11.60;;
45863;SDS011;31579;52.354;16.974;2023-02-28T10:23:19;22.60;;;11.60;;
45863;SDS011;31579;52.354;16.974;2023-02-28T10:28:17;28.80;;;13.00;;
45863;SDS011;31579;52.354;16.974;2023-02-28T10:33:18;28.80;;;13.00;;
45863;SDS011;31579;52.354;16.974;2023-02-28T10:38:19;19.50;;;9.50;;
45863;SDS011;31579;52.354;16.974;2023-02-28T10:58:22;25.20;;;11.30;;
45863;SDS011;31579;52.354;16.974;2023-02-28T11:08:16;22.50;;;10.40;;
45863;SDS011;31579;52.354;16.974;2023-02-28T11:13:17;22.50;;;10.40;;
45863;SDS011;31579;52.354;16.974;2023-02-28T11:18:20;24.50;;;11.20;;
45863;SDS011;31579;52.354;16.974;2023-02-28T11:23:15;24.50;;;11.20;;
45863;SDS011;31579;52.354;16.974;2023-02-28T11:38:15;20.20;;;10.40;;
45863;SDS011;31579;52.354;16.974;2023-02-28T12:00:55;23.60;;;11.00;;
45863;SDS011;31579;52.354;16.974;2023-02-28T12:10:24;19.60;;;10.10;;
45863;SDS011;31579;52.354;16.974;2023-02-28T12:15:27;23.90;;;10.50;;
45863;SDS011;31579;52.354;16.974;2023-02-28T12:25:32;18.80;;;10.20;;
45863;SDS011;31579;52.354;16.974;2023-02-28T12:40:23;19.30;;;9.60;;
45863;SDS011;31579;52.354;16.974;2023-02-28T12:45:24;18.50;;;9.70;;
45863;SDS011;31579;52.354;16.974;2023-02-28T13:00:20;18.00;;;9.50;;
45863;SDS011;31579;52.354;16.974;2023-02-28T13:10:19;16.00;;;8.00;;
45863;SDS011;31579;52.354;16.974;2023-02-28T13:15:26;18.80;;;9.20;;
45863;SDS011;31579;52.354;16.974;2023-02-28T13:34:16;20.40;;;9.80;;
45863;SDS011;31579;52.354;16.974;2023-02-28T13:44:24;17.40;;;9.70;;
45863;SDS011;31579;52.354;16.974;2023-02-28T13:54:24;19.50;;;9.00;;
45863;SDS011;31579;52.354;16.974;2023-02-28T14:07:09;16.60;;;8.10;;
45863;SDS011;31579;52.354;16.974;2023-02-28T14:17:14;15.70;;;7.70;;
45863;SDS011;31579;52.354;16.974;2023-02-28T14:22:18;15.70;;;7.70;;
45863;SDS011;31579;52.354;16.974;2023-02-28T14:37:10;15.80;;;7.20;;
45863;SDS011;31579;52.354;16.974;2023-02-28T14:47:13;15.80;;;7.50;;
45863;SDS011;31579;52.354;16.974;2023-02-28T15:07:12;17.40;;;8.70;;
45863;SDS011;31579;52.354;16.974;2023-02-28T15:12:12;17.40;;;8.70;;
45863;SDS011;31579;52.354;16.974;2023-02-28T15:17:22;15.40;;;8.00;;
45863;SDS011;31579;52.354;16.974;2023-02-28T15:32:16;18.20;;;8.70;;
45863;SDS011;31579;52.354;16.974;2023-02-28T15:42:11;15.50;;;8.30;;
45863;SDS011;31579;52.354;16.974;2023-02-28T15:56:15;20.60;;;9.80;;
45863;SDS011;31579;52.354;16.974;2023-02-28T16:01:16;20.60;;;9.80;;
45863;SDS011;31579;52.354;16.974;2023-02-28T16:11:08;17.10;;;8.90;;
45863;SDS011;31579;52.354;16.974;2023-02-28T16:16:06;20.90;;;9.50;;
45863;SDS011;31579;52.354;16.974;2023-02-28T16:21:08;20.90;;;9.50;;
45863;SDS011;31579;52.354;16.974;2023-02-28T16:26:06;21.70;;;9.90;;
45863;SDS011;31579;52.354;16.974;2023-02-28T16:31:06;21.70;;;9.90;;
45863;SDS011;31579;52.354;16.974;2023-02-28T16:36:06;23.70;;;11.20;;
45863;SDS011;31579;52.354;16.974;2023-02-28T16:41:06;23.70;;;11.20;;
45863;SDS011;31579;52.354;16.974;2023-02-28T16:46:08;26.00;;;12.20;;
45863;SDS011;31579;52.354;16.974;2023-02-28T16:51:10;26.00;;;12.20;;
45863;SDS011;31579;52.354;16.974;2023-02-28T16:56:06;25.80;;;11.60;;
45863;SDS011;31579;52.354;16.974;2023-02-28T17:05:21;24.80;;;13.10;;
45863;SDS011;31579;52.354;16.974;2023-02-28T17:15:06;41.70;;;17.50;;
45863;SDS011;31579;52.354;16.974;2023-02-28T17:20:06;41.70;;;17.50;;
45863;SDS011;31579;52.354;16.974;2023-02-28T17:25:06;39.60;;;17.10;;
45863;SDS011;31579;52.354;16.974;2023-02-28T17:32:04;39.60;;;17.10;;
45863;SDS011;31579;52.354;16.974;2023-02-28T17:37:04;40.20;;;19.00;;
45863;SDS011;31579;52.354;16.974;2023-02-28T17:42:04;40.20;;;19.00;;
45863;SDS011;31579;52.354;16.974;2023-02-28T17:47:04;58.10;;;25.00;;
45863;SDS011;31579;52.354;16.974;2023-02-28T17:52:04;58.10;;;25.00;;
45863;SDS011;31579;52.354;16.974;2023-02-28T17:57:04;47.30;;;21.40;;
45863;SDS011;31579;52.354;16.974;2023-02-28T18:02:04;47.30;;;21.40;;
45863;SDS011;31579;52.354;16.974;2023-02-28T18:07:05;54.20;;;22.00;;
45863;SDS011;31579;52.354;16.974;2023-02-28T18:12:04;54.20;;;22.00;;
45863;SDS011;31579;52.354;16.974;2023-02-28T18:17:04;88.10;;;29.80;;
45863;SDS011;31579;52.354;16.974;2023-02-28T18:19:49;88.10;;;29.80;;
45863;SDS011;31579;52.354;16.974;2023-02-28T18:24:47;78.50;;;29.30;;
45863;SDS011;31579;52.354;16.974;2023-02-28T18:29:47;78.50;;;29.30;;
45863;SDS011;31579;52.354;16.974;2023-02-28T18:34:47;55.20;;;24.10;;
45863;SDS011;31579;52.354;16.974;2023-02-28T18:39:47;55.20;;;24.10;;
45863;SDS011;31579;52.354;16.974;2023-02-28T18:40:01;55.20;;;24.10;;
45863;SDS011;31579;52.354;16.974;2023-02-28T18:44:59;93.40;;;35.60;;
45863;SDS011;31579;52.354;16.974;2023-02-28T18:49:59;93.40;;;35.60;;
45863;SDS011;31579;52.354;16.974;2023-02-28T18:54:59;105.90;;;36.40;;
45863;SDS011;31579;52.354;16.974;2023-02-28T18:59:59;105.90;;;36.40;;
45863;SDS011;31579;52.354;16.974;2023-02-28T19:04:59;94.50;;;35.10;;
45863;SDS011;31579;52.354;16.974;2023-02-28T19:09:59;94.50;;;35.10;;
45863;SDS011;31579;52.354;16.974;2023-02-28T19:14:59;101.20;;;39.10;;
45863;SDS011;31579;52.354;16.974;2023-02-28T19:19:59;101.20;;;39.10;;
45863;SDS011;31579;52.354;16.974;2023-02-28T19:24:59;123.90;;;47.30;;
45863;SDS011;31579;52.354;16.974;2023-02-28T19:29:59;123.90;;;47.30;;
45863;SDS011;31579;52.354;16.974;2023-02-28T19:34:59;94.90;;;38.30;;
45863;SDS011;31579;52.354;16.974;2023-02-28T19:43:03;94.90;;;38.30;;
45863;SDS011;31579;52.354;16.974;2023-02-28T19:48:03;109.20;;;43.70;;
45863;SDS011;31579;52.354;16.974;2023-02-28T19:53:03;109.20;;;43.70;;
45863;SDS011;31579;52.354;16.974;2023-02-28T19:58:03;73.10;;;32.30;;
45863;SDS011;31579;52.354;16.974;2023-02-28T20:06:19;107.00;;;47.20;;
45863;SDS011;31579;52.354;16.974;2023-02-28T20:11:19;107.00;;;47.20;;
45863;SDS011;31579;52.354;16.974;2023-02-28T20:16:19;70.50;;;31.60;;
45863;SDS011;31579;52.354;16.974;2023-02-28T20:21:19;70.50;;;31.60;;
45863;SDS011;31579;52.354;16.974;2023-02-28T20:26:19;51.20;;;23.30;;
45863;SDS011;31579;52.354;16.974;2023-02-28T20:31:20;51.20;;;23.30;;
45863;SDS011;31579;52.354;16.974;2023-02-28T20:36:19;52.00;;;23.90;;
45863;SDS011;31579;52.354;16.974;2023-02-28T20:41:19;52.00;;;23.90;;
45863;SDS011;31579;52.354;16.974;2023-02-28T20:46:19;63.00;;;26.90;;
45863;SDS011;31579;52.354;16.974;2023-02-28T20:51:19;63.00;;;26.90;;
45863;SDS011;31579;52.354;16.974;2023-02-28T20:56:19;61.60;;;26.70;;
45863;SDS011;31579;52.354;16.974;2023-02-28T21:01:19;61.60;;;26.70;;
45863;SDS011;31579;52.354;16.974;2023-02-28T21:07:26;60.80;;;28.10;;
45863;SDS011;31579;52.354;16.974;2023-02-28T21:12:25;60.80;;;28.10;;
45863;SDS011;31579;52.354;16.974;2023-02-28T21:17:25;65.50;;;28.90;;
45863;SDS011;31579;52.354;16.974;2023-02-28T21:21:37;65.50;;;28.90;;
45863;SDS011;31579;52.354;16.974;2023-02-28T21:26:34;64.80;;;26.90;;
45863;SDS011;31579;52.354;16.974;2023-02-28T21:31:34;64.80;;;26.90;;
45863;SDS011;31579;52.354;16.974;2023-02-28T21:36:36;62.50;;;27.20;;
45863;SDS011;31579;52.354;16.974;2023-02-28T21:41:34;62.50;;;27.20;;
45863;SDS011;31579;52.354;16.974;2023-02-28T21:46:34;85.20;;;34.30;;
45863;SDS011;31579;52.354;16.974;2023-02-28T21:51:34;85.20;;;34.30;;
45863;SDS011;31579;52.354;16.974;2023-02-28T21:56:34;88.00;;;36.30;;
45863;SDS011;31579;52.354;16.974;2023-02-28T22:01:38;88.00;;;36.30;;
45863;SDS011;31579;52.354;16.974;2023-02-28T22:06:35;88.70;;;36.30;;
45863;SDS011;31579;52.354;16.974;2023-02-28T22:11:06;88.70;;;36.30;;
45863;SDS011;31579;52.354;16.974;2023-02-28T22:16:05;96.40;;;39.70;;
45863;SDS011;31579;52.354;16.974;2023-02-28T22:21:05;96.40;;;39.70;;
45863;SDS011;31579;52.354;16.974;2023-02-28T22:26:06;95.50;;;38.00;;
45863;SDS011;31579;52.354;16.974;2023-02-28T22:36:04;120.70;;;48.70;;
45863;SDS011;31579;52.354;16.974;2023-02-28T22:41:04;120.70;;;48.70;;
45863;SDS011;31579;52.354;16.974;2023-02-28T22:44:51;103.20;;;40.40;;
45863;SDS011;31579;52.354;16.974;2023-02-28T22:49:49;103.20;;;40.40;;
45863;SDS011;31579;52.354;16.974;2023-02-28T22:54:49;108.70;;;46.40;;
45863;SDS011;31579;52.354;16.974;2023-02-28T22:59:49;108.70;;;46.40;;
45863;SDS011;31579;52.354;16.974;2023-02-28T23:04:49;117.20;;;48.80;;
45863;SDS011;31579;52.354;16.974;2023-02-28T23:09:49;117.20;;;48.80;;
45863;SDS011;31579;52.354;16.974;2023-02-28T23:14:49;184.20;;;73.90;;
45863;SDS011;31579;52.354;16.974;2023-02-28T23:19:49;184.20;;;73.90;;
45863;SDS011;31579;52.354;16.974;2023-02-28T23:24:49;214.90;;;89.00;;
45863;SDS011;31579;52.354;16.974;2023-02-28T23:29:49;214.90;;;89.00;;
45863;SDS011;31579;52.354;16.974;2023-02-28T23:34:49;220.30;;;85.80;;
45863;SDS011;31579;52.354;16.974;2023-02-28T23:38:37;220.30;;;85.80;;
45863;SDS011;31579;52.354;16.974;2023-02-28T23:43:35;246.50;;;96.40;;
45863;SDS011;31579;52.354;16.974;2023-02-28T23:48:35;246.50;;;96.40;;
45863;SDS011;31579;52.354;16.974;2023-02-28T23:53:35;187.30;;;77.10;;
45863;SDS011;31579;52.354;16.974;2023-02-28T23:58:35;187.30;;;77.10;;
